sensor_id;sensor_type;location;lat;lon;timestamp;P1;durP1;ratioP1;P2;durP2;ratioP2
62362;SDS011;48396;48.426;1.500;2022-11-11T00:00:14;16.73;;;6.55;;
62362;SDS011;48396;48.426;1.500;2022-11-11T00:02:40;22.67;;;8.07;;
62362;SDS011;48396;48.426;1.500;2022-11-11T00:05:06;21.70;;;7.10;;
62362;SDS011;48396;48.426;1.500;2022-11-11T00:07:32;22.02;;;7.90;;
62362;SDS011;48396;48.426;1.500;2022-11-11T00:09:57;21.17;;;7.70;;
62362;SDS011;48396;48.426;1.500;2022-11-11T00:12:23;20.95;;;8.25;;
62362;SDS011;48396;48.426;1.500;2022-11-11T00:14:49;23.05;;;8.30;;
62362;SDS011;48396;48.426;1.500;2022-11-11T00:17:15;18.40;;;7.10;;
62362;SDS011;48396;48.426;1.500;2022-11-11T00:19:59;14.00;;;5.85;;
62362;SDS011;48396;48.426;1.500;2022-11-11T00:22:43;17.80;;;6.90;;
62362;SDS011;48396;48.426;1.500;2022-11-11T00:25:27;21.10;;;7.53;;
62362;SDS011;48396;48.426;1.500;2022-11-11T00:27:53;22.85;;;8.77;;
62362;SDS011;48396;48.426;1.500;2022-11-11T00:30:19;24.05;;;8.15;;
62362;SDS011;48396;48.426;1.500;2022-11-11T00:32:44;22.73;;;8.93;;
62362;SDS011;48396;48.426;1.500;2022-11-11T00:35:10;21.85;;;8.30;;
62362;SDS011;48396;48.426;1.500;2022-11-11T00:37:56;17.70;;;7.60;;
62362;SDS011;48396;48.426;1.500;2022-11-11T00:40:31;18.08;;;7.28;;
62362;SDS011;48396;48.426;1.500;2022-11-11T00:42:57;18.33;;;7.55;;
62362;SDS011;48396;48.426;1.500;2022-11-11T00:45:23;21.30;;;7.95;;
62362;SDS011;48396;48.426;1.500;2022-11-11T00:47:48;23.77;;;8.63;;
62362;SDS011;48396;48.426;1.500;2022-11-11T00:50:33;21.00;;;8.30;;
62362;SDS011;48396;48.426;1.500;2022-11-11T00:53:18;18.67;;;8.02;;
62362;SDS011;48396;48.426;1.500;2022-11-11T00:55:45;21.02;;;9.05;;
62362;SDS011;48396;48.426;1.500;2022-11-11T00:58:11;19.17;;;7.30;;
62362;SDS011;48396;48.426;1.500;2022-11-11T01:00:37;19.02;;;7.28;;
62362;SDS011;48396;48.426;1.500;2022-11-11T01:03:03;24.35;;;8.85;;
62362;SDS011;48396;48.426;1.500;2022-11-11T01:05:28;22.65;;;9.15;;
62362;SDS011;48396;48.426;1.500;2022-11-11T01:07:54;24.15;;;9.05;;
62362;SDS011;48396;48.426;1.500;2022-11-11T01:10:20;17.95;;;8.00;;
62362;SDS011;48396;48.426;1.500;2022-11-11T01:13:06;21.52;;;8.50;;
62362;SDS011;48396;48.426;1.500;2022-11-11T01:15:44;22.00;;;7.30;;
62362;SDS011;48396;48.426;1.500;2022-11-11T01:18:13;18.90;;;8.48;;
62362;SDS011;48396;48.426;1.500;2022-11-11T01:20:41;20.25;;;8.85;;
62362;SDS011;48396;48.426;1.500;2022-11-11T01:23:07;20.30;;;9.00;;
62362;SDS011;48396;48.426;1.500;2022-11-11T01:25:35;22.13;;;9.50;;
62362;SDS011;48396;48.426;1.500;2022-11-11T01:28:03;19.63;;;7.82;;
62362;SDS011;48396;48.426;1.500;2022-11-11T01:30:30;19.42;;;8.38;;
62362;SDS011;48396;48.426;1.500;2022-11-11T01:32:57;24.08;;;9.60;;
62362;SDS011;48396;48.426;1.500;2022-11-11T01:35:23;23.15;;;9.65;;
62362;SDS011;48396;48.426;1.500;2022-11-11T01:37:49;23.48;;;10.55;;
62362;SDS011;48396;48.426;1.500;2022-11-11T01:40:15;22.70;;;10.27;;
62362;SDS011;48396;48.426;1.500;2022-11-11T01:42:48;23.15;;;9.90;;
62362;SDS011;48396;48.426;1.500;2022-11-11T01:53:56;21.85;;;10.10;;
62362;SDS011;48396;48.426;1.500;2022-11-11T01:56:26;21.27;;;9.65;;
62362;SDS011;48396;48.426;1.500;2022-11-11T01:58:53;21.55;;;9.38;;
62362;SDS011;48396;48.426;1.500;2022-11-11T02:01:22;23.52;;;10.18;;
62362;SDS011;48396;48.426;1.500;2022-11-11T02:03:48;20.00;;;8.90;;
62362;SDS011;48396;48.426;1.500;2022-11-11T02:06:34;21.70;;;9.57;;
62362;SDS011;48396;48.426;1.500;2022-11-11T02:09:01;24.23;;;9.80;;
62362;SDS011;48396;48.426;1.500;2022-11-11T02:11:28;21.25;;;10.07;;
62362;SDS011;48396;48.426;1.500;2022-11-11T02:14:15;21.98;;;9.52;;
62362;SDS011;48396;48.426;1.500;2022-11-11T02:17:04;23.65;;;10.73;;
62362;SDS011;48396;48.426;1.500;2022-11-11T02:22:15;24.20;;;10.27;;
62362;SDS011;48396;48.426;1.500;2022-11-11T02:25:05;20.42;;;8.35;;
62362;SDS011;48396;48.426;1.500;2022-11-11T02:27:33;20.05;;;8.32;;
62362;SDS011;48396;48.426;1.500;2022-11-11T02:30:02;21.63;;;9.00;;
62362;SDS011;48396;48.426;1.500;2022-11-11T02:32:29;20.38;;;8.68;;
62362;SDS011;48396;48.426;1.500;2022-11-11T02:34:55;22.15;;;9.80;;
62362;SDS011;48396;48.426;1.500;2022-11-11T02:37:22;21.27;;;9.20;;
62362;SDS011;48396;48.426;1.500;2022-11-11T02:39:50;20.65;;;8.52;;
62362;SDS011;48396;48.426;1.500;2022-11-11T02:42:20;19.67;;;8.35;;
62362;SDS011;48396;48.426;1.500;2022-11-11T02:44:47;19.08;;;8.65;;
62362;SDS011;48396;48.426;1.500;2022-11-11T02:47:13;19.33;;;7.30;;
62362;SDS011;48396;48.426;1.500;2022-11-11T02:49:39;16.65;;;6.97;;
62362;SDS011;48396;48.426;1.500;2022-11-11T02:52:05;18.45;;;7.20;;
62362;SDS011;48396;48.426;1.500;2022-11-11T02:54:30;14.93;;;6.82;;
62362;SDS011;48396;48.426;1.500;2022-11-11T02:56:56;16.95;;;7.15;;
62362;SDS011;48396;48.426;1.500;2022-11-11T02:59:31;18.00;;;7.38;;
62362;SDS011;48396;48.426;1.500;2022-11-11T03:01:57;19.35;;;8.13;;
62362;SDS011;48396;48.426;1.500;2022-11-11T03:04:22;19.08;;;8.25;;
62362;SDS011;48396;48.426;1.500;2022-11-11T03:06:49;18.50;;;7.72;;
62362;SDS011;48396;48.426;1.500;2022-11-11T03:09:15;17.83;;;7.10;;
62362;SDS011;48396;48.426;1.500;2022-11-11T03:11:41;15.98;;;6.60;;
62362;SDS011;48396;48.426;1.500;2022-11-11T03:14:07;16.77;;;6.75;;
62362;SDS011;48396;48.426;1.500;2022-11-11T03:16:33;15.00;;;6.28;;
62362;SDS011;48396;48.426;1.500;2022-11-11T03:19:17;14.82;;;6.47;;
62362;SDS011;48396;48.426;1.500;2022-11-11T03:21:43;19.83;;;7.18;;
62362;SDS011;48396;48.426;1.500;2022-11-11T03:24:09;14.70;;;6.65;;
62362;SDS011;48396;48.426;1.500;2022-11-11T03:26:35;19.40;;;7.55;;
62362;SDS011;48396;48.426;1.500;2022-11-11T03:29:01;16.08;;;6.85;;
62362;SDS011;48396;48.426;1.500;2022-11-11T03:31:27;17.92;;;7.22;;
62362;SDS011;48396;48.426;1.500;2022-11-11T03:33:53;16.20;;;6.47;;
62362;SDS011;48396;48.426;1.500;2022-11-11T03:36:19;15.75;;;6.82;;
62362;SDS011;48396;48.426;1.500;2022-11-11T03:38:44;15.88;;;7.05;;
62362;SDS011;48396;48.426;1.500;2022-11-11T03:41:10;17.73;;;7.15;;
62362;SDS011;48396;48.426;1.500;2022-11-11T03:43:36;15.55;;;6.78;;
62362;SDS011;48396;48.426;1.500;2022-11-11T03:46:02;14.45;;;6.65;;
62362;SDS011;48396;48.426;1.500;2022-11-11T03:48:30;14.80;;;6.55;;
62362;SDS011;48396;48.426;1.500;2022-11-11T03:50:57;15.95;;;6.75;;
62362;SDS011;48396;48.426;1.500;2022-11-11T03:53:23;17.08;;;7.70;;
62362;SDS011;48396;48.426;1.500;2022-11-11T03:55:49;18.23;;;8.05;;
62362;SDS011;48396;48.426;1.500;2022-11-11T03:58:16;16.55;;;7.07;;
62362;SDS011;48396;48.426;1.500;2022-11-11T04:00:42;19.35;;;7.72;;
62362;SDS011;48396;48.426;1.500;2022-11-11T04:03:13;17.00;;;7.38;;
62362;SDS011;48396;48.426;1.500;2022-11-11T04:05:58;14.55;;;6.15;;
62362;SDS011;48396;48.426;1.500;2022-11-11T04:08:44;15.55;;;6.55;;
62362;SDS011;48396;48.426;1.500;2022-11-11T04:11:37;17.33;;;6.88;;
62362;SDS011;48396;48.426;1.500;2022-11-11T04:14:04;15.88;;;6.25;;
62362;SDS011;48396;48.426;1.500;2022-11-11T04:16:50;15.10;;;6.20;;
62362;SDS011;48396;48.426;1.500;2022-11-11T04:19:16;15.00;;;6.20;;
62362;SDS011;48396;48.426;1.500;2022-11-11T04:22:00;14.57;;;6.70;;
62362;SDS011;48396;48.426;1.500;2022-11-11T04:24:26;20.13;;;7.10;;
62362;SDS011;48396;48.426;1.500;2022-11-11T04:27:11;15.68;;;6.30;;
62362;SDS011;48396;48.426;1.500;2022-11-11T04:29:39;14.05;;;6.15;;
62362;SDS011;48396;48.426;1.500;2022-11-11T04:32:08;16.50;;;6.63;;
62362;SDS011;48396;48.426;1.500;2022-11-11T04:35:01;14.25;;;6.45;;
62362;SDS011;48396;48.426;1.500;2022-11-11T04:37:32;13.73;;;5.90;;
62362;SDS011;48396;48.426;1.500;2022-11-11T04:40:00;14.27;;;6.28;;
62362;SDS011;48396;48.426;1.500;2022-11-11T04:42:45;13.85;;;5.85;;
62362;SDS011;48396;48.426;1.500;2022-11-11T04:45:11;14.77;;;6.45;;
62362;SDS011;48396;48.426;1.500;2022-11-11T04:50:30;14.63;;;6.13;;
62362;SDS011;48396;48.426;1.500;2022-11-11T04:52:58;16.63;;;6.57;;
62362;SDS011;48396;48.426;1.500;2022-11-11T04:55:24;17.20;;;6.50;;
62362;SDS011;48396;48.426;1.500;2022-11-11T04:58:09;14.95;;;6.50;;
62362;SDS011;48396;48.426;1.500;2022-11-11T05:00:35;17.20;;;6.20;;
62362;SDS011;48396;48.426;1.500;2022-11-11T05:03:01;16.58;;;6.32;;
62362;SDS011;48396;48.426;1.500;2022-11-11T05:05:57;13.38;;;6.10;;
62362;SDS011;48396;48.426;1.500;2022-11-11T05:08:46;16.45;;;7.20;;
62362;SDS011;48396;48.426;1.500;2022-11-11T05:11:29;15.70;;;6.68;;
62362;SDS011;48396;48.426;1.500;2022-11-11T05:14:00;20.85;;;7.00;;
62362;SDS011;48396;48.426;1.500;2022-11-11T05:16:46;16.75;;;7.53;;
62362;SDS011;48396;48.426;1.500;2022-11-11T05:19:32;16.40;;;6.90;;
62362;SDS011;48396;48.426;1.500;2022-11-11T05:22:18;16.85;;;6.80;;
62362;SDS011;48396;48.426;1.500;2022-11-11T05:24:46;17.02;;;6.60;;
62362;SDS011;48396;48.426;1.500;2022-11-11T05:27:30;17.25;;;6.85;;
62362;SDS011;48396;48.426;1.500;2022-11-11T05:29:56;19.30;;;7.63;;
62362;SDS011;48396;48.426;1.500;2022-11-11T05:32:22;17.00;;;6.68;;
62362;SDS011;48396;48.426;1.500;2022-11-11T05:34:48;18.42;;;7.38;;
62362;SDS011;48396;48.426;1.500;2022-11-11T05:37:15;19.23;;;7.20;;
62362;SDS011;48396;48.426;1.500;2022-11-11T05:39:41;18.30;;;7.07;;
62362;SDS011;48396;48.426;1.500;2022-11-11T05:42:08;17.83;;;7.20;;
62362;SDS011;48396;48.426;1.500;2022-11-11T05:44:34;18.13;;;7.28;;
62362;SDS011;48396;48.426;1.500;2022-11-11T05:47:00;19.55;;;7.50;;
62362;SDS011;48396;48.426;1.500;2022-11-11T05:49:26;19.08;;;8.13;;
62362;SDS011;48396;48.426;1.500;2022-11-11T05:51:53;20.90;;;8.40;;
62362;SDS011;48396;48.426;1.500;2022-11-11T05:54:20;18.13;;;7.38;;
62362;SDS011;48396;48.426;1.500;2022-11-11T05:56:45;17.17;;;6.60;;
62362;SDS011;48396;48.426;1.500;2022-11-11T05:59:11;16.63;;;7.60;;
62362;SDS011;48396;48.426;1.500;2022-11-11T06:01:37;16.98;;;7.40;;
62362;SDS011;48396;48.426;1.500;2022-11-11T06:04:03;19.02;;;7.15;;
62362;SDS011;48396;48.426;1.500;2022-11-11T06:06:30;15.38;;;6.30;;
62362;SDS011;48396;48.426;1.500;2022-11-11T06:08:57;17.02;;;6.85;;
62362;SDS011;48396;48.426;1.500;2022-11-11T06:11:23;18.33;;;6.63;;
62362;SDS011;48396;48.426;1.500;2022-11-11T06:13:49;17.50;;;7.45;;
62362;SDS011;48396;48.426;1.500;2022-11-11T06:16:15;18.00;;;7.30;;
62362;SDS011;48396;48.426;1.500;2022-11-11T06:18:41;17.58;;;7.50;;
62362;SDS011;48396;48.426;1.500;2022-11-11T06:21:07;20.67;;;7.70;;
62362;SDS011;48396;48.426;1.500;2022-11-11T06:23:33;16.52;;;6.65;;
62362;SDS011;48396;48.426;1.500;2022-11-11T06:25:58;16.25;;;6.82;;
62362;SDS011;48396;48.426;1.500;2022-11-11T06:28:44;17.08;;;6.43;;
62362;SDS011;48396;48.426;1.500;2022-11-11T06:31:15;16.05;;;6.68;;
62362;SDS011;48396;48.426;1.500;2022-11-11T06:33:45;17.55;;;6.53;;
62362;SDS011;48396;48.426;1.500;2022-11-11T06:36:12;19.00;;;6.97;;
62362;SDS011;48396;48.426;1.500;2022-11-11T06:38:39;15.98;;;6.13;;
62362;SDS011;48396;48.426;1.500;2022-11-11T06:41:06;15.95;;;6.53;;
62362;SDS011;48396;48.426;1.500;2022-11-11T06:43:34;14.88;;;6.25;;
62362;SDS011;48396;48.426;1.500;2022-11-11T06:46:00;19.00;;;7.20;;
62362;SDS011;48396;48.426;1.500;2022-11-11T06:48:26;16.85;;;7.55;;
62362;SDS011;48396;48.426;1.500;2022-11-11T06:50:53;16.05;;;6.45;;
62362;SDS011;48396;48.426;1.500;2022-11-11T06:53:20;20.42;;;7.80;;
62362;SDS011;48396;48.426;1.500;2022-11-11T06:55:46;17.08;;;6.68;;
62362;SDS011;48396;48.426;1.500;2022-11-11T06:58:16;15.93;;;6.07;;
62362;SDS011;48396;48.426;1.500;2022-11-11T07:00:44;18.55;;;7.07;;
62362;SDS011;48396;48.426;1.500;2022-11-11T07:03:11;14.98;;;6.30;;
62362;SDS011;48396;48.426;1.500;2022-11-11T07:05:40;16.48;;;7.07;;
62362;SDS011;48396;48.426;1.500;2022-11-11T07:08:08;11.73;;;5.40;;
62362;SDS011;48396;48.426;1.500;2022-11-11T07:10:36;14.30;;;6.20;;
62362;SDS011;48396;48.426;1.500;2022-11-11T07:13:04;16.20;;;7.00;;
62362;SDS011;48396;48.426;1.500;2022-11-11T07:15:30;12.88;;;5.85;;
62362;SDS011;48396;48.426;1.500;2022-11-11T07:17:56;15.45;;;6.38;;
62362;SDS011;48396;48.426;1.500;2022-11-11T07:20:22;15.00;;;6.70;;
62362;SDS011;48396;48.426;1.500;2022-11-11T07:22:48;16.00;;;6.43;;
62362;SDS011;48396;48.426;1.500;2022-11-11T07:25:14;14.45;;;6.18;;
62362;SDS011;48396;48.426;1.500;2022-11-11T07:27:40;17.70;;;7.25;;
62362;SDS011;48396;48.426;1.500;2022-11-11T07:30:07;14.90;;;6.18;;
62362;SDS011;48396;48.426;1.500;2022-11-11T07:32:34;15.05;;;6.07;;
62362;SDS011;48396;48.426;1.500;2022-11-11T07:35:02;14.30;;;6.43;;
62362;SDS011;48396;48.426;1.500;2022-11-11T07:37:31;17.48;;;6.43;;
62362;SDS011;48396;48.426;1.500;2022-11-11T07:39:57;16.80;;;6.85;;
62362;SDS011;48396;48.426;1.500;2022-11-11T07:42:23;16.17;;;6.22;;
62362;SDS011;48396;48.426;1.500;2022-11-11T07:44:48;16.38;;;6.30;;
62362;SDS011;48396;48.426;1.500;2022-11-11T07:47:14;16.33;;;6.55;;
62362;SDS011;48396;48.426;1.500;2022-11-11T07:49:40;15.77;;;6.70;;
62362;SDS011;48396;48.426;1.500;2022-11-11T07:52:05;16.05;;;6.43;;
62362;SDS011;48396;48.426;1.500;2022-11-11T07:54:31;13.50;;;6.30;;
62362;SDS011;48396;48.426;1.500;2022-11-11T07:56:57;13.05;;;5.68;;
62362;SDS011;48396;48.426;1.500;2022-11-11T07:59:23;16.60;;;5.78;;
62362;SDS011;48396;48.426;1.500;2022-11-11T08:01:48;13.10;;;5.55;;
62362;SDS011;48396;48.426;1.500;2022-11-11T08:04:14;12.90;;;5.50;;
62362;SDS011;48396;48.426;1.500;2022-11-11T08:06:40;13.27;;;5.47;;
62362;SDS011;48396;48.426;1.500;2022-11-11T08:09:05;15.02;;;6.22;;
62362;SDS011;48396;48.426;1.500;2022-11-11T08:11:31;14.48;;;5.57;;
62362;SDS011;48396;48.426;1.500;2022-11-11T08:14:15;17.42;;;6.68;;
62362;SDS011;48396;48.426;1.500;2022-11-11T08:16:41;14.23;;;5.90;;
62362;SDS011;48396;48.426;1.500;2022-11-11T08:19:07;17.10;;;5.97;;
62362;SDS011;48396;48.426;1.500;2022-11-11T08:21:32;12.07;;;5.32;;
62362;SDS011;48396;48.426;1.500;2022-11-11T08:23:58;17.75;;;5.93;;
62362;SDS011;48396;48.426;1.500;2022-11-11T08:26:26;12.43;;;5.35;;
62362;SDS011;48396;48.426;1.500;2022-11-11T08:28:52;13.63;;;5.78;;
62362;SDS011;48396;48.426;1.500;2022-11-11T08:31:17;10.10;;;5.35;;
62362;SDS011;48396;48.426;1.500;2022-11-11T08:33:43;11.57;;;5.07;;
62362;SDS011;48396;48.426;1.500;2022-11-11T08:36:10;9.98;;;5.43;;
62362;SDS011;48396;48.426;1.500;2022-11-11T08:38:36;11.15;;;5.38;;
62362;SDS011;48396;48.426;1.500;2022-11-11T08:41:03;10.57;;;5.40;;
62362;SDS011;48396;48.426;1.500;2022-11-11T08:43:31;11.98;;;5.18;;
62362;SDS011;48396;48.426;1.500;2022-11-11T08:45:58;13.90;;;5.78;;
62362;SDS011;48396;48.426;1.500;2022-11-11T08:48:28;12.88;;;5.10;;
62362;SDS011;48396;48.426;1.500;2022-11-11T08:50:55;13.35;;;5.75;;
62362;SDS011;48396;48.426;1.500;2022-11-11T08:53:21;9.98;;;4.70;;
62362;SDS011;48396;48.426;1.500;2022-11-11T08:55:47;10.73;;;5.70;;
62362;SDS011;48396;48.426;1.500;2022-11-11T08:58:13;10.48;;;5.03;;
62362;SDS011;48396;48.426;1.500;2022-11-11T09:00:39;13.75;;;5.72;;
62362;SDS011;48396;48.426;1.500;2022-11-11T09:03:06;12.57;;;5.53;;
62362;SDS011;48396;48.426;1.500;2022-11-11T09:05:34;11.93;;;5.28;;
62362;SDS011;48396;48.426;1.500;2022-11-11T09:08:02;14.80;;;5.63;;
62362;SDS011;48396;48.426;1.500;2022-11-11T09:10:31;14.82;;;6.47;;
62362;SDS011;48396;48.426;1.500;2022-11-11T09:12:57;14.40;;;6.00;;
62362;SDS011;48396;48.426;1.500;2022-11-11T09:15:24;12.00;;;5.07;;
62362;SDS011;48396;48.426;1.500;2022-11-11T09:17:50;13.35;;;6.07;;
62362;SDS011;48396;48.426;1.500;2022-11-11T09:20:16;13.30;;;6.38;;
62362;SDS011;48396;48.426;1.500;2022-11-11T09:22:46;11.00;;;5.40;;
62362;SDS011;48396;48.426;1.500;2022-11-11T09:25:12;12.60;;;6.13;;
62362;SDS011;48396;48.426;1.500;2022-11-11T09:27:38;12.32;;;5.75;;
62362;SDS011;48396;48.426;1.500;2022-11-11T09:30:05;14.05;;;5.93;;
62362;SDS011;48396;48.426;1.500;2022-11-11T09:32:32;9.80;;;5.32;;
62362;SDS011;48396;48.426;1.500;2022-11-11T09:34:58;12.32;;;5.95;;
62362;SDS011;48396;48.426;1.500;2022-11-11T09:37:24;13.95;;;6.28;;
62362;SDS011;48396;48.426;1.500;2022-11-11T09:39:51;13.25;;;6.18;;
62362;SDS011;48396;48.426;1.500;2022-11-11T09:42:17;15.82;;;6.75;;
62362;SDS011;48396;48.426;1.500;2022-11-11T09:45:13;14.20;;;6.45;;
62362;SDS011;48396;48.426;1.500;2022-11-11T09:50:42;14.85;;;6.70;;
62362;SDS011;48396;48.426;1.500;2022-11-11T09:55:54;17.23;;;7.65;;
62362;SDS011;48396;48.426;1.500;2022-11-11T09:58:31;13.05;;;6.40;;
62362;SDS011;48396;48.426;1.500;2022-11-11T10:01:24;12.13;;;5.53;;
62362;SDS011;48396;48.426;1.500;2022-11-11T10:03:52;11.48;;;6.00;;
62362;SDS011;48396;48.426;1.500;2022-11-11T10:06:32;13.85;;;5.65;;
62362;SDS011;48396;48.426;1.500;2022-11-11T10:09:00;13.90;;;5.40;;
62362;SDS011;48396;48.426;1.500;2022-11-11T10:14:31;12.10;;;5.70;;
62362;SDS011;48396;48.426;1.500;2022-11-11T10:20:08;14.40;;;6.25;;
62362;SDS011;48396;48.426;1.500;2022-11-11T10:22:35;14.60;;;5.80;;
62362;SDS011;48396;48.426;1.500;2022-11-11T10:25:50;10.63;;;5.40;;
62362;SDS011;48396;48.426;1.500;2022-11-11T10:27:55;12.02;;;5.93;;
62362;SDS011;48396;48.426;1.500;2022-11-11T10:30:27;12.95;;;5.93;;
62362;SDS011;48396;48.426;1.500;2022-11-11T10:35:29;10.80;;;5.70;;
62362;SDS011;48396;48.426;1.500;2022-11-11T10:40:53;11.43;;;5.63;;
62362;SDS011;48396;48.426;1.500;2022-11-11T10:43:26;12.00;;;5.72;;
62362;SDS011;48396;48.426;1.500;2022-11-11T10:46:12;11.05;;;5.68;;
62362;SDS011;48396;48.426;1.500;2022-11-11T10:51:20;12.43;;;5.43;;
62362;SDS011;48396;48.426;1.500;2022-11-11T10:59:17;13.23;;;5.75;;
62362;SDS011;48396;48.426;1.500;2022-11-11T11:02:20;12.30;;;5.10;;
62362;SDS011;48396;48.426;1.500;2022-11-11T11:04:52;13.15;;;5.75;;
62362;SDS011;48396;48.426;1.500;2022-11-11T11:07:45;15.15;;;6.03;;
62362;SDS011;48396;48.426;1.500;2022-11-11T11:10:19;11.85;;;5.60;;
62362;SDS011;48396;48.426;1.500;2022-11-11T11:12:51;10.98;;;5.57;;
62362;SDS011;48396;48.426;1.500;2022-11-11T11:15:27;11.88;;;5.03;;
62362;SDS011;48396;48.426;1.500;2022-11-11T11:17:57;10.25;;;5.00;;
62362;SDS011;48396;48.426;1.500;2022-11-11T11:20:27;12.40;;;4.97;;
62362;SDS011;48396;48.426;1.500;2022-11-11T11:22:54;11.25;;;5.72;;
62362;SDS011;48396;48.426;1.500;2022-11-11T11:25:23;13.32;;;5.90;;
62362;SDS011;48396;48.426;1.500;2022-11-11T11:27:51;13.82;;;6.10;;
62362;SDS011;48396;48.426;1.500;2022-11-11T11:30:28;11.30;;;5.22;;
62362;SDS011;48396;48.426;1.500;2022-11-11T11:32:55;12.65;;;5.68;;
62362;SDS011;48396;48.426;1.500;2022-11-11T11:35:54;11.30;;;5.60;;
62362;SDS011;48396;48.426;1.500;2022-11-11T11:38:13;10.63;;;5.32;;
62362;SDS011;48396;48.426;1.500;2022-11-11T11:45:57;15.02;;;6.15;;
62362;SDS011;48396;48.426;1.500;2022-11-11T11:56:39;11.98;;;5.80;;
62362;SDS011;48396;48.426;1.500;2022-11-11T11:59:16;14.35;;;6.22;;
62362;SDS011;48396;48.426;1.500;2022-11-11T12:04:41;16.30;;;6.82;;
62362;SDS011;48396;48.426;1.500;2022-11-11T12:07:33;11.65;;;5.88;;
62362;SDS011;48396;48.426;1.500;2022-11-11T12:20:37;14.98;;;6.63;;
62362;SDS011;48396;48.426;1.500;2022-11-11T12:26:23;13.65;;;6.60;;
62362;SDS011;48396;48.426;1.500;2022-11-11T12:29:21;14.05;;;7.30;;
62362;SDS011;48396;48.426;1.500;2022-11-11T12:36:58;11.00;;;6.00;;
62362;SDS011;48396;48.426;1.500;2022-11-11T12:40:04;11.75;;;6.22;;
62362;SDS011;48396;48.426;1.500;2022-11-11T12:50:30;17.92;;;7.47;;
62362;SDS011;48396;48.426;1.500;2022-11-11T12:58:37;15.63;;;7.03;;
62362;SDS011;48396;48.426;1.500;2022-11-11T13:01:07;16.45;;;7.55;;
62362;SDS011;48396;48.426;1.500;2022-11-11T13:03:49;17.05;;;7.63;;
62362;SDS011;48396;48.426;1.500;2022-11-11T13:06:42;14.90;;;6.93;;
62362;SDS011;48396;48.426;1.500;2022-11-11T13:09:45;16.10;;;7.30;;
62362;SDS011;48396;48.426;1.500;2022-11-11T13:12:21;17.02;;;7.10;;
62362;SDS011;48396;48.426;1.500;2022-11-11T13:15:11;15.07;;;6.95;;
62362;SDS011;48396;48.426;1.500;2022-11-11T13:17:41;15.25;;;7.35;;
62362;SDS011;48396;48.426;1.500;2022-11-11T13:22:53;16.23;;;6.93;;
62362;SDS011;48396;48.426;1.500;2022-11-11T13:25:29;15.30;;;7.25;;
62362;SDS011;48396;48.426;1.500;2022-11-11T13:28:02;16.38;;;7.50;;
62362;SDS011;48396;48.426;1.500;2022-11-11T13:33:25;16.20;;;6.97;;
62362;SDS011;48396;48.426;1.500;2022-11-11T13:36:00;15.52;;;7.22;;
62362;SDS011;48396;48.426;1.500;2022-11-11T13:38:32;15.27;;;6.95;;
62362;SDS011;48396;48.426;1.500;2022-11-11T13:41:28;16.48;;;6.97;;
62362;SDS011;48396;48.426;1.500;2022-11-11T13:44:05;13.50;;;6.70;;
62362;SDS011;48396;48.426;1.500;2022-11-11T13:46:33;15.25;;;7.10;;
62362;SDS011;48396;48.426;1.500;2022-11-11T13:49:24;14.27;;;7.20;;
62362;SDS011;48396;48.426;1.500;2022-11-11T13:52:03;14.35;;;6.38;;
62362;SDS011;48396;48.426;1.500;2022-11-11T13:54:46;13.82;;;6.38;;
62362;SDS011;48396;48.426;1.500;2022-11-11T13:57:19;11.45;;;5.85;;
62362;SDS011;48396;48.426;1.500;2022-11-11T14:12:51;10.10;;;5.43;;
62362;SDS011;48396;48.426;1.500;2022-11-11T14:15:40;12.93;;;6.32;;
62362;SDS011;48396;48.426;1.500;2022-11-11T14:20:42;12.05;;;5.88;;
62362;SDS011;48396;48.426;1.500;2022-11-11T14:41:54;15.95;;;6.10;;
62362;SDS011;48396;48.426;1.500;2022-11-11T14:55:39;12.68;;;5.70;;
62362;SDS011;48396;48.426;1.500;2022-11-11T14:57:40;11.10;;;5.60;;
62362;SDS011;48396;48.426;1.500;2022-11-11T15:03:30;10.57;;;4.57;;
62362;SDS011;48396;48.426;1.500;2022-11-11T15:05:50;13.32;;;5.07;;
62362;SDS011;48396;48.426;1.500;2022-11-11T15:08:24;10.70;;;5.13;;
62362;SDS011;48396;48.426;1.500;2022-11-11T15:16:50;9.32;;;4.57;;
62362;SDS011;48396;48.426;1.500;2022-11-11T15:39:25;9.40;;;4.65;;
62362;SDS011;48396;48.426;1.500;2022-11-11T15:41:57;8.55;;;3.90;;
62362;SDS011;48396;48.426;1.500;2022-11-11T15:44:24;6.72;;;4.15;;
62362;SDS011;48396;48.426;1.500;2022-11-11T15:46:55;8.73;;;4.20;;
62362;SDS011;48396;48.426;1.500;2022-11-11T15:49:38;10.05;;;4.30;;
62362;SDS011;48396;48.426;1.500;2022-11-11T15:54:53;10.25;;;4.75;;
62362;SDS011;48396;48.426;1.500;2022-11-11T15:57:26;11.88;;;5.55;;
62362;SDS011;48396;48.426;1.500;2022-11-11T15:59:55;12.48;;;4.80;;
62362;SDS011;48396;48.426;1.500;2022-11-11T16:02:23;13.40;;;5.60;;
62362;SDS011;48396;48.426;1.500;2022-11-11T16:04:55;11.80;;;5.47;;
62362;SDS011;48396;48.426;1.500;2022-11-11T16:07:30;11.35;;;5.40;;
62362;SDS011;48396;48.426;1.500;2022-11-11T16:10:04;10.02;;;5.18;;
62362;SDS011;48396;48.426;1.500;2022-11-11T16:13:16;11.60;;;5.68;;
62362;SDS011;48396;48.426;1.500;2022-11-11T16:15:39;12.43;;;5.75;;
62362;SDS011;48396;48.426;1.500;2022-11-11T16:18:55;13.10;;;5.55;;
62362;SDS011;48396;48.426;1.500;2022-11-11T16:21:05;12.10;;;5.90;;
62362;SDS011;48396;48.426;1.500;2022-11-11T16:23:37;12.55;;;5.60;;
62362;SDS011;48396;48.426;1.500;2022-11-11T16:26:03;12.20;;;5.65;;
62362;SDS011;48396;48.426;1.500;2022-11-11T16:28:40;10.45;;;5.15;;
62362;SDS011;48396;48.426;1.500;2022-11-11T16:33:59;11.60;;;5.30;;
62362;SDS011;48396;48.426;1.500;2022-11-11T16:37:05;14.70;;;5.68;;
62362;SDS011;48396;48.426;1.500;2022-11-11T16:39:32;13.07;;;6.60;;
62362;SDS011;48396;48.426;1.500;2022-11-11T16:41:59;13.52;;;5.95;;
62362;SDS011;48396;48.426;1.500;2022-11-11T16:44:46;11.02;;;5.30;;
62362;SDS011;48396;48.426;1.500;2022-11-11T16:52:52;19.15;;;10.52;;
62362;SDS011;48396;48.426;1.500;2022-11-11T16:58:21;20.70;;;10.73;;
62362;SDS011;48396;48.426;1.500;2022-11-11T17:00:46;19.10;;;9.75;;
62362;SDS011;48396;48.426;1.500;2022-11-11T17:03:17;18.00;;;8.88;;
62362;SDS011;48396;48.426;1.500;2022-11-11T17:08:43;22.58;;;11.82;;
62362;SDS011;48396;48.426;1.500;2022-11-11T17:11:09;28.10;;;15.98;;
62362;SDS011;48396;48.426;1.500;2022-11-11T17:13:55;22.98;;;11.75;;
62362;SDS011;48396;48.426;1.500;2022-11-11T17:16:21;21.48;;;10.48;;
62362;SDS011;48396;48.426;1.500;2022-11-11T17:18:47;19.90;;;8.70;;
62362;SDS011;48396;48.426;1.500;2022-11-11T17:21:13;18.13;;;8.57;;
62362;SDS011;48396;48.426;1.500;2022-11-11T17:23:39;18.83;;;7.80;;
62362;SDS011;48396;48.426;1.500;2022-11-11T17:26:05;16.40;;;7.40;;
62362;SDS011;48396;48.426;1.500;2022-11-11T17:28:31;17.63;;;7.03;;
62362;SDS011;48396;48.426;1.500;2022-11-11T17:31:02;16.92;;;6.63;;
62362;SDS011;48396;48.426;1.500;2022-11-11T17:33:32;12.80;;;5.68;;
62362;SDS011;48396;48.426;1.500;2022-11-11T17:35:57;13.02;;;5.47;;
62362;SDS011;48396;48.426;1.500;2022-11-11T17:38:25;11.05;;;5.50;;
62362;SDS011;48396;48.426;1.500;2022-11-11T17:40:51;13.45;;;6.07;;
62362;SDS011;48396;48.426;1.500;2022-11-11T17:43:17;11.82;;;5.80;;
62362;SDS011;48396;48.426;1.500;2022-11-11T17:45:43;14.73;;;7.35;;
62362;SDS011;48396;48.426;1.500;2022-11-11T17:48:09;16.83;;;8.05;;
62362;SDS011;48396;48.426;1.500;2022-11-11T17:50:36;17.55;;;7.47;;
62362;SDS011;48396;48.426;1.500;2022-11-11T17:53:03;13.30;;;6.35;;
62362;SDS011;48396;48.426;1.500;2022-11-11T17:55:30;12.75;;;6.15;;
62362;SDS011;48396;48.426;1.500;2022-11-11T17:57:57;18.33;;;7.35;;
62362;SDS011;48396;48.426;1.500;2022-11-11T18:00:23;22.88;;;11.82;;